sensor_id;sensor_type;location;lat;lon;timestamp;P1;durP1;ratioP1;P2;durP2;ratioP2
41333;SDS011;27078;46.428;6.256;2023-10-31T00:00:42;1.08;;;0.40;;
41333;SDS011;27078;46.428;6.256;2023-10-31T00:03:08;2.40;;;0.40;;
41333;SDS011;27078;46.428;6.256;2023-10-31T00:05:35;2.92;;;0.50;;
41333;SDS011;27078;46.428;6.256;2023-10-31T00:08:01;2.65;;;0.35;;
41333;SDS011;27078;46.428;6.256;2023-10-31T00:10:29;0.75;;;0.40;;
41333;SDS011;27078;46.428;6.256;2023-10-31T00:12:54;1.50;;;0.30;;
41333;SDS011;27078;46.428;6.256;2023-10-31T00:15:20;2.58;;;0.30;;
41333;SDS011;27078;46.428;6.256;2023-10-31T00:17:46;1.95;;;0.40;;
41333;SDS011;27078;46.428;6.256;2023-10-31T00:20:11;2.75;;;0.40;;
41333;SDS011;27078;46.428;6.256;2023-10-31T00:22:36;1.75;;;0.60;;
41333;SDS011;27078;46.428;6.256;2023-10-31T00:25:02;1.08;;;0.30;;
41333;SDS011;27078;46.428;6.256;2023-10-31T00:27:27;3.97;;;0.43;;
41333;SDS011;27078;46.428;6.256;2023-10-31T00:29:53;1.83;;;0.50;;
41333;SDS011;27078;46.428;6.256;2023-10-31T00:32:18;2.55;;;0.32;;
41333;SDS011;27078;46.428;6.256;2023-10-31T00:34:43;2.05;;;0.40;;
41333;SDS011;27078;46.428;6.256;2023-10-31T00:37:09;1.00;;;0.20;;
41333;SDS011;27078;46.428;6.256;2023-10-31T00:39:34;3.55;;;0.30;;
41333;SDS011;27078;46.428;6.256;2023-10-31T00:41:59;1.60;;;0.30;;
41333;SDS011;27078;46.428;6.256;2023-10-31T00:44:25;1.08;;;0.30;;
41333;SDS011;27078;46.428;6.256;2023-10-31T00:46:50;2.17;;;0.30;;
41333;SDS011;27078;46.428;6.256;2023-10-31T00:49:15;1.90;;;0.30;;
41333;SDS011;27078;46.428;6.256;2023-10-31T00:51:41;3.30;;;0.38;;
41333;SDS011;27078;46.428;6.256;2023-10-31T00:54:06;3.95;;;0.30;;
41333;SDS011;27078;46.428;6.256;2023-10-31T00:56:31;5.60;;;0.50;;
41333;SDS011;27078;46.428;6.256;2023-10-31T00:58:57;1.88;;;0.30;;
41333;SDS011;27078;46.428;6.256;2023-10-31T01:01:22;3.08;;;0.40;;
41333;SDS011;27078;46.428;6.256;2023-10-31T01:03:48;0.57;;;0.25;;
41333;SDS011;27078;46.428;6.256;2023-10-31T01:06:13;3.60;;;0.38;;
41333;SDS011;27078;46.428;6.256;2023-10-31T01:08:38;7.10;;;0.52;;
41333;SDS011;27078;46.428;6.256;2023-10-31T01:11:04;2.85;;;0.28;;
41333;SDS011;27078;46.428;6.256;2023-10-31T01:13:29;4.90;;;0.45;;
41333;SDS011;27078;46.428;6.256;2023-10-31T01:15:55;1.17;;;0.28;;
41333;SDS011;27078;46.428;6.256;2023-10-31T01:18:20;2.75;;;0.50;;
41333;SDS011;27078;46.428;6.256;2023-10-31T01:20:46;2.08;;;0.22;;
41333;SDS011;27078;46.428;6.256;2023-10-31T01:23:11;2.88;;;0.38;;
41333;SDS011;27078;46.428;6.256;2023-10-31T01:25:36;2.50;;;0.20;;
41333;SDS011;27078;46.428;6.256;2023-10-31T01:28:02;3.72;;;0.38;;
41333;SDS011;27078;46.428;6.256;2023-10-31T01:30:27;3.17;;;0.32;;
41333;SDS011;27078;46.428;6.256;2023-10-31T01:32:52;4.00;;;0.22;;
41333;SDS011;27078;46.428;6.256;2023-10-31T01:35:18;1.77;;;0.30;;
41333;SDS011;27078;46.428;6.256;2023-10-31T01:37:43;2.50;;;0.30;;
41333;SDS011;27078;46.428;6.256;2023-10-31T01:40:11;4.13;;;0.40;;
41333;SDS011;27078;46.428;6.256;2023-10-31T01:42:38;1.98;;;0.40;;
41333;SDS011;27078;46.428;6.256;2023-10-31T01:45:03;2.08;;;0.28;;
41333;SDS011;27078;46.428;6.256;2023-10-31T01:47:29;2.85;;;0.40;;
41333;SDS011;27078;46.428;6.256;2023-10-31T01:49:54;3.22;;;0.35;;
41333;SDS011;27078;46.428;6.256;2023-10-31T01:52:20;2.35;;;0.40;;
41333;SDS011;27078;46.428;6.256;2023-10-31T01:54:46;1.63;;;0.40;;
41333;SDS011;27078;46.428;6.256;2023-10-31T01:57:12;4.32;;;0.50;;
41333;SDS011;27078;46.428;6.256;2023-10-31T01:59:39;1.10;;;0.30;;
41333;SDS011;27078;46.428;6.256;2023-10-31T02:02:04;3.33;;;0.43;;
41333;SDS011;27078;46.428;6.256;2023-10-31T02:04:30;3.40;;;0.40;;
41333;SDS011;27078;46.428;6.256;2023-10-31T02:06:56;1.33;;;0.20;;
41333;SDS011;27078;46.428;6.256;2023-10-31T02:09:21;4.55;;;0.60;;
41333;SDS011;27078;46.428;6.256;2023-10-31T02:11:51;3.22;;;0.50;;
41333;SDS011;27078;46.428;6.256;2023-10-31T02:14:17;1.92;;;0.40;;
41333;SDS011;27078;46.428;6.256;2023-10-31T02:16:43;5.18;;;0.50;;
41333;SDS011;27078;46.428;6.256;2023-10-31T02:19:08;4.20;;;0.50;;
41333;SDS011;27078;46.428;6.256;2023-10-31T02:21:38;2.13;;;0.40;;
41333;SDS011;27078;46.428;6.256;2023-10-31T02:24:04;2.67;;;0.50;;
41333;SDS011;27078;46.428;6.256;2023-10-31T02:26:30;2.92;;;0.50;;
41333;SDS011;27078;46.428;6.256;2023-10-31T02:28:56;3.13;;;0.60;;
41333;SDS011;27078;46.428;6.256;2023-10-31T02:31:22;4.47;;;0.52;;
41333;SDS011;27078;46.428;6.256;2023-10-31T02:33:48;3.60;;;0.63;;
41333;SDS011;27078;46.428;6.256;2023-10-31T02:36:13;2.90;;;0.60;;
41333;SDS011;27078;46.428;6.256;2023-10-31T02:38:39;3.03;;;0.60;;
41333;SDS011;27078;46.428;6.256;2023-10-31T02:41:04;1.65;;;0.57;;
41333;SDS011;27078;46.428;6.256;2023-10-31T02:43:30;2.67;;;0.45;;
41333;SDS011;27078;46.428;6.256;2023-10-31T02:45:55;1.23;;;0.50;;
41333;SDS011;27078;46.428;6.256;2023-10-31T02:48:21;2.88;;;0.68;;
41333;SDS011;27078;46.428;6.256;2023-10-31T02:50:46;3.83;;;0.80;;
41333;SDS011;27078;46.428;6.256;2023-10-31T02:53:11;3.53;;;1.00;;
41333;SDS011;27078;46.428;6.256;2023-10-31T02:55:37;5.78;;;1.00;;
41333;SDS011;27078;46.428;6.256;2023-10-31T02:58:02;3.88;;;0.80;;
41333;SDS011;27078;46.428;6.256;2023-10-31T03:00:27;4.68;;;0.90;;
41333;SDS011;27078;46.428;6.256;2023-10-31T03:02:53;2.92;;;0.80;;
41333;SDS011;27078;46.428;6.256;2023-10-31T03:05:18;1.95;;;0.70;;
41333;SDS011;27078;46.428;6.256;2023-10-31T03:07:43;3.38;;;0.85;;
41333;SDS011;27078;46.428;6.256;2023-10-31T03:10:10;5.82;;;1.00;;
41333;SDS011;27078;46.428;6.256;2023-10-31T03:12:35;2.15;;;0.80;;
41333;SDS011;27078;46.428;6.256;2023-10-31T03:15:02;3.42;;;0.73;;
41333;SDS011;27078;46.428;6.256;2023-10-31T03:17:28;2.13;;;0.85;;
41333;SDS011;27078;46.428;6.256;2023-10-31T03:19:54;2.65;;;0.70;;
41333;SDS011;27078;46.428;6.256;2023-10-31T03:22:20;2.05;;;0.60;;
41333;SDS011;27078;46.428;6.256;2023-10-31T03:24:45;2.30;;;0.60;;
41333;SDS011;27078;46.428;6.256;2023-10-31T03:27:11;2.85;;;0.57;;
41333;SDS011;27078;46.428;6.256;2023-10-31T03:29:36;2.40;;;0.60;;
41333;SDS011;27078;46.428;6.256;2023-10-31T03:32:01;3.85;;;0.60;;
41333;SDS011;27078;46.428;6.256;2023-10-31T03:34:27;4.22;;;0.65;;
41333;SDS011;27078;46.428;6.256;2023-10-31T03:36:52;1.48;;;0.55;;
41333;SDS011;27078;46.428;6.256;2023-10-31T03:39:18;2.67;;;0.40;;
41333;SDS011;27078;46.428;6.256;2023-10-31T03:41:43;5.07;;;0.60;;
41333;SDS011;27078;46.428;6.256;2023-10-31T03:44:09;1.88;;;0.47;;
41333;SDS011;27078;46.428;6.256;2023-10-31T03:46:34;6.88;;;0.60;;
41333;SDS011;27078;46.428;6.256;2023-10-31T03:49:00;1.85;;;0.47;;
41333;SDS011;27078;46.428;6.256;2023-10-31T03:51:25;2.40;;;0.40;;
41333;SDS011;27078;46.428;6.256;2023-10-31T03:53:51;2.42;;;0.40;;
41333;SDS011;27078;46.428;6.256;2023-10-31T03:56:16;1.58;;;0.38;;
41333;SDS011;27078;46.428;6.256;2023-10-31T03:58:42;3.80;;;0.60;;
41333;SDS011;27078;46.428;6.256;2023-10-31T04:01:08;1.60;;;0.32;;
41333;SDS011;27078;46.428;6.256;2023-10-31T04:03:33;2.85;;;0.50;;
41333;SDS011;27078;46.428;6.256;2023-10-31T04:05:58;2.65;;;0.47;;
41333;SDS011;27078;46.428;6.256;2023-10-31T04:08:24;3.03;;;0.40;;
41333;SDS011;27078;46.428;6.256;2023-10-31T04:10:50;4.88;;;0.30;;
41333;SDS011;27078;46.428;6.256;2023-10-31T04:13:16;3.25;;;0.60;;
41333;SDS011;27078;46.428;6.256;2023-10-31T04:15:41;3.15;;;0.30;;
41333;SDS011;27078;46.428;6.256;2023-10-31T04:18:07;3.42;;;0.50;;
41333;SDS011;27078;46.428;6.256;2023-10-31T04:20:32;1.80;;;0.40;;
41333;SDS011;27078;46.428;6.256;2023-10-31T04:22:57;3.72;;;0.30;;
41333;SDS011;27078;46.428;6.256;2023-10-31T04:25:23;3.20;;;0.47;;
41333;SDS011;27078;46.428;6.256;2023-10-31T04:27:48;4.07;;;0.30;;
41333;SDS011;27078;46.428;6.256;2023-10-31T04:30:14;2.38;;;0.40;;
41333;SDS011;27078;46.428;6.256;2023-10-31T04:32:39;1.27;;;0.20;;
41333;SDS011;27078;46.428;6.256;2023-10-31T04:35:05;1.67;;;0.30;;
41333;SDS011;27078;46.428;6.256;2023-10-31T04:37:30;3.08;;;0.50;;
41333;SDS011;27078;46.428;6.256;2023-10-31T04:39:56;1.70;;;0.30;;
41333;SDS011;27078;46.428;6.256;2023-10-31T04:42:21;3.15;;;0.30;;
41333;SDS011;27078;46.428;6.256;2023-10-31T04:44:47;2.42;;;0.30;;
41333;SDS011;27078;46.428;6.256;2023-10-31T04:47:13;3.03;;;0.30;;
41333;SDS011;27078;46.428;6.256;2023-10-31T04:49:38;3.33;;;0.40;;
41333;SDS011;27078;46.428;6.256;2023-10-31T04:52:03;1.23;;;0.30;;
41333;SDS011;27078;46.428;6.256;2023-10-31T04:54:29;4.20;;;0.35;;
41333;SDS011;27078;46.428;6.256;2023-10-31T04:56:55;3.15;;;0.50;;
41333;SDS011;27078;46.428;6.256;2023-10-31T04:59:20;5.65;;;0.50;;
41333;SDS011;27078;46.428;6.256;2023-10-31T05:01:49;2.47;;;0.40;;
41333;SDS011;27078;46.428;6.256;2023-10-31T05:04:15;2.05;;;0.47;;
41333;SDS011;27078;46.428;6.256;2023-10-31T05:06:41;2.20;;;0.73;;
41333;SDS011;27078;46.428;6.256;2023-10-31T05:09:07;2.97;;;0.70;;
41333;SDS011;27078;46.428;6.256;2023-10-31T05:11:32;1.98;;;0.80;;
41333;SDS011;27078;46.428;6.256;2023-10-31T05:13:57;3.03;;;0.60;;
41333;SDS011;27078;46.428;6.256;2023-10-31T05:16:23;4.07;;;0.98;;
41333;SDS011;27078;46.428;6.256;2023-10-31T05:18:49;2.65;;;0.90;;
41333;SDS011;27078;46.428;6.256;2023-10-31T05:21:18;5.10;;;1.00;;
41333;SDS011;27078;46.428;6.256;2023-10-31T05:23:45;3.15;;;1.00;;
41333;SDS011;27078;46.428;6.256;2023-10-31T05:26:10;3.00;;;1.25;;
41333;SDS011;27078;46.428;6.256;2023-10-31T05:28:36;3.53;;;1.48;;
41333;SDS011;27078;46.428;6.256;2023-10-31T05:31:01;5.38;;;1.40;;
41333;SDS011;27078;46.428;6.256;2023-10-31T05:33:26;2.30;;;1.40;;
41333;SDS011;27078;46.428;6.256;2023-10-31T05:35:52;2.58;;;1.35;;
41333;SDS011;27078;46.428;6.256;2023-10-31T05:38:17;3.88;;;1.80;;
41333;SDS011;27078;46.428;6.256;2023-10-31T05:40:42;6.25;;;1.92;;
41333;SDS011;27078;46.428;6.256;2023-10-31T05:43:08;3.55;;;1.70;;
41333;SDS011;27078;46.428;6.256;2023-10-31T05:45:33;4.63;;;1.70;;
41333;SDS011;27078;46.428;6.256;2023-10-31T05:47:59;3.05;;;1.70;;
41333;SDS011;27078;46.428;6.256;2023-10-31T05:50:24;3.55;;;1.75;;
41333;SDS011;27078;46.428;6.256;2023-10-31T05:52:49;6.07;;;2.10;;
41333;SDS011;27078;46.428;6.256;2023-10-31T05:55:15;3.65;;;1.95;;
41333;SDS011;27078;46.428;6.256;2023-10-31T05:57:40;4.15;;;2.05;;
41333;SDS011;27078;46.428;6.256;2023-10-31T06:00:06;4.18;;;2.38;;
41333;SDS011;27078;46.428;6.256;2023-10-31T06:02:32;5.63;;;2.25;;
41333;SDS011;27078;46.428;6.256;2023-10-31T06:04:58;3.53;;;2.22;;
41333;SDS011;27078;46.428;6.256;2023-10-31T06:07:23;5.93;;;2.35;;
41333;SDS011;27078;46.428;6.256;2023-10-31T06:09:49;5.53;;;2.63;;
41333;SDS011;27078;46.428;6.256;2023-10-31T06:12:14;4.53;;;2.30;;
41333;SDS011;27078;46.428;6.256;2023-10-31T06:14:39;5.00;;;2.40;;
41333;SDS011;27078;46.428;6.256;2023-10-31T06:17:05;4.15;;;2.60;;
41333;SDS011;27078;46.428;6.256;2023-10-31T06:19:33;5.13;;;2.70;;
41333;SDS011;27078;46.428;6.256;2023-10-31T06:22:02;5.00;;;2.05;;
41333;SDS011;27078;46.428;6.256;2023-10-31T06:24:27;5.70;;;2.13;;
41333;SDS011;27078;46.428;6.256;2023-10-31T06:26:53;5.90;;;1.83;;
41333;SDS011;27078;46.428;6.256;2023-10-31T06:29:18;4.40;;;1.70;;
41333;SDS011;27078;46.428;6.256;2023-10-31T06:31:46;4.45;;;1.70;;
41333;SDS011;27078;46.428;6.256;2023-10-31T06:34:12;3.85;;;1.23;;
41333;SDS011;27078;46.428;6.256;2023-10-31T06:36:38;2.50;;;1.15;;
41333;SDS011;27078;46.428;6.256;2023-10-31T06:39:03;4.07;;;1.23;;
41333;SDS011;27078;46.428;6.256;2023-10-31T06:41:29;2.95;;;0.90;;
41333;SDS011;27078;46.428;6.256;2023-10-31T06:43:54;2.75;;;0.80;;
41333;SDS011;27078;46.428;6.256;2023-10-31T06:46:19;3.13;;;1.00;;
41333;SDS011;27078;46.428;6.256;2023-10-31T06:48:45;2.60;;;0.90;;
41333;SDS011;27078;46.428;6.256;2023-10-31T06:51:10;3.25;;;0.90;;
41333;SDS011;27078;46.428;6.256;2023-10-31T06:53:36;3.47;;;0.88;;
41333;SDS011;27078;46.428;6.256;2023-10-31T06:56:01;3.42;;;0.68;;
41333;SDS011;27078;46.428;6.256;2023-10-31T06:58:27;2.60;;;0.88;;
41333;SDS011;27078;46.428;6.256;2023-10-31T07:00:52;2.35;;;0.95;;
41333;SDS011;27078;46.428;6.256;2023-10-31T07:03:17;2.92;;;0.90;;
41333;SDS011;27078;46.428;6.256;2023-10-31T07:05:43;2.33;;;0.80;;
41333;SDS011;27078;46.428;6.256;2023-10-31T07:08:08;3.85;;;0.95;;
41333;SDS011;27078;46.428;6.256;2023-10-31T07:10:34;3.13;;;0.98;;
41333;SDS011;27078;46.428;6.256;2023-10-31T07:12:59;3.72;;;1.05;;
41333;SDS011;27078;46.428;6.256;2023-10-31T07:15:27;3.20;;;1.00;;
41333;SDS011;27078;46.428;6.256;2023-10-31T07:17:53;3.55;;;1.20;;
41333;SDS011;27078;46.428;6.256;2023-10-31T07:20:18;2.83;;;1.38;;
41333;SDS011;27078;46.428;6.256;2023-10-31T07:22:44;5.38;;;1.52;;
41333;SDS011;27078;46.428;6.256;2023-10-31T07:25:09;5.93;;;1.60;;
41333;SDS011;27078;46.428;6.256;2023-10-31T07:27:35;4.13;;;1.38;;
41333;SDS011;27078;46.428;6.256;2023-10-31T07:30:02;3.30;;;1.23;;
41333;SDS011;27078;46.428;6.256;2023-10-31T07:32:29;6.35;;;1.60;;
41333;SDS011;27078;46.428;6.256;2023-10-31T07:34:54;6.15;;;1.98;;
41333;SDS011;27078;46.428;6.256;2023-10-31T07:37:19;4.03;;;1.55;;
41333;SDS011;27078;46.428;6.256;2023-10-31T07:39:45;3.80;;;1.48;;
41333;SDS011;27078;46.428;6.256;2023-10-31T07:42:10;2.70;;;1.30;;
41333;SDS011;27078;46.428;6.256;2023-10-31T07:44:35;2.67;;;1.15;;
41333;SDS011;27078;46.428;6.256;2023-10-31T07:47:01;2.65;;;1.20;;
41333;SDS011;27078;46.428;6.256;2023-10-31T07:49:26;3.53;;;1.10;;
41333;SDS011;27078;46.428;6.256;2023-10-31T07:51:51;3.35;;;1.17;;
41333;SDS011;27078;46.428;6.256;2023-10-31T07:54:17;2.58;;;0.90;;
41333;SDS011;27078;46.428;6.256;2023-10-31T07:56:42;2.92;;;0.82;;
41333;SDS011;27078;46.428;6.256;2023-10-31T07:59:08;2.17;;;1.13;;
41333;SDS011;27078;46.428;6.256;2023-10-31T08:01:34;3.60;;;0.93;;
41333;SDS011;27078;46.428;6.256;2023-10-31T08:04:00;4.80;;;0.98;;
41333;SDS011;27078;46.428;6.256;2023-10-31T08:06:25;2.75;;;0.90;;
41333;SDS011;27078;46.428;6.256;2023-10-31T08:08:50;4.05;;;1.25;;
41333;SDS011;27078;46.428;6.256;2023-10-31T08:11:16;3.17;;;0.90;;
41333;SDS011;27078;46.428;6.256;2023-10-31T08:13:41;4.20;;;1.30;;
41333;SDS011;27078;46.428;6.256;2023-10-31T08:16:07;4.07;;;1.00;;
41333;SDS011;27078;46.428;6.256;2023-10-31T08:18:33;3.13;;;1.08;;
41333;SDS011;27078;46.428;6.256;2023-10-31T08:20:58;5.72;;;1.00;;
41333;SDS011;27078;46.428;6.256;2023-10-31T08:23:24;3.25;;;1.02;;
41333;SDS011;27078;46.428;6.256;2023-10-31T08:25:50;4.60;;;0.95;;
41333;SDS011;27078;46.428;6.256;2023-10-31T08:28:16;2.65;;;1.00;;
41333;SDS011;27078;46.428;6.256;2023-10-31T08:30:41;3.05;;;0.85;;
41333;SDS011;27078;46.428;6.256;2023-10-31T08:33:07;5.80;;;0.90;;
41333;SDS011;27078;46.428;6.256;2023-10-31T08:35:32;3.53;;;0.98;;
41333;SDS011;27078;46.428;6.256;2023-10-31T08:37:58;2.53;;;0.80;;
41333;SDS011;27078;46.428;6.256;2023-10-31T08:40:23;2.72;;;0.90;;
41333;SDS011;27078;46.428;6.256;2023-10-31T08:42:48;2.58;;;0.70;;
41333;SDS011;27078;46.428;6.256;2023-10-31T08:45:14;3.38;;;0.75;;
41333;SDS011;27078;46.428;6.256;2023-10-31T08:47:40;2.83;;;0.77;;
41333;SDS011;27078;46.428;6.256;2023-10-31T08:50:05;3.42;;;0.60;;
41333;SDS011;27078;46.428;6.256;2023-10-31T08:52:33;2.83;;;0.50;;
41333;SDS011;27078;46.428;6.256;2023-10-31T08:54:59;2.67;;;0.80;;
41333;SDS011;27078;46.428;6.256;2023-10-31T08:57:24;2.15;;;0.50;;
41333;SDS011;27078;46.428;6.256;2023-10-31T08:59:49;1.67;;;0.60;;
41333;SDS011;27078;46.428;6.256;2023-10-31T09:02:15;3.58;;;0.60;;
41333;SDS011;27078;46.428;6.256;2023-10-31T09:04:40;1.58;;;0.60;;
41333;SDS011;27078;46.428;6.256;2023-10-31T09:07:05;3.35;;;0.80;;
41333;SDS011;27078;46.428;6.256;2023-10-31T09:09:31;3.35;;;0.75;;
41333;SDS011;27078;46.428;6.256;2023-10-31T09:11:56;3.47;;;0.77;;
41333;SDS011;27078;46.428;6.256;2023-10-31T09:14:21;1.83;;;0.73;;
41333;SDS011;27078;46.428;6.256;2023-10-31T09:16:46;3.38;;;0.70;;
41333;SDS011;27078;46.428;6.256;2023-10-31T09:19:12;2.15;;;0.70;;
41333;SDS011;27078;46.428;6.256;2023-10-31T09:21:37;4.20;;;0.82;;
41333;SDS011;27078;46.428;6.256;2023-10-31T09:24:03;2.20;;;0.75;;
41333;SDS011;27078;46.428;6.256;2023-10-31T09:26:28;2.97;;;0.85;;
41333;SDS011;27078;46.428;6.256;2023-10-31T09:28:54;2.78;;;0.80;;
41333;SDS011;27078;46.428;6.256;2023-10-31T09:31:20;1.70;;;0.70;;
41333;SDS011;27078;46.428;6.256;2023-10-31T09:33:45;3.47;;;0.90;;
41333;SDS011;27078;46.428;6.256;2023-10-31T09:36:11;2.60;;;0.80;;
41333;SDS011;27078;46.428;6.256;2023-10-31T09:38:38;1.77;;;0.70;;
41333;SDS011;27078;46.428;6.256;2023-10-31T09:41:04;2.47;;;0.80;;
41333;SDS011;27078;46.428;6.256;2023-10-31T09:43:30;3.60;;;0.80;;
41333;SDS011;27078;46.428;6.256;2023-10-31T09:45:56;3.75;;;0.60;;
41333;SDS011;27078;46.428;6.256;2023-10-31T09:48:22;2.03;;;0.55;;
41333;SDS011;27078;46.428;6.256;2023-10-31T09:50:48;3.13;;;0.60;;
41333;SDS011;27078;46.428;6.256;2023-10-31T09:53:14;1.80;;;0.70;;
41333;SDS011;27078;46.428;6.256;2023-10-31T09:55:43;4.10;;;0.80;;
41333;SDS011;27078;46.428;6.256;2023-10-31T09:58:10;2.95;;;0.73;;
41333;SDS011;27078;46.428;6.256;2023-10-31T10:00:36;4.38;;;0.75;;
41333;SDS011;27078;46.428;6.256;2023-10-31T10:03:03;3.88;;;0.82;;
41333;SDS011;27078;46.428;6.256;2023-10-31T10:05:30;2.88;;;0.70;;
41333;SDS011;27078;46.428;6.256;2023-10-31T10:07:56;2.42;;;0.60;;
41333;SDS011;27078;46.428;6.256;2023-10-31T10:10:23;2.03;;;0.60;;
41333;SDS011;27078;46.428;6.256;2023-10-31T10:12:48;3.03;;;0.60;;
41333;SDS011;27078;46.428;6.256;2023-10-31T10:15:16;3.75;;;0.70;;
41333;SDS011;27078;46.428;6.256;2023-10-31T10:17:48;2.95;;;0.57;;
41333;SDS011;27078;46.428;6.256;2023-10-31T10:20:14;1.45;;;0.40;;
41333;SDS011;27078;46.428;6.256;2023-10-31T10:22:40;3.05;;;0.60;;
41333;SDS011;27078;46.428;6.256;2023-10-31T10:25:08;5.05;;;0.80;;
41333;SDS011;27078;46.428;6.256;2023-10-31T10:27:34;3.90;;;0.70;;
41333;SDS011;27078;46.428;6.256;2023-10-31T10:30:01;1.73;;;0.30;;
41333;SDS011;27078;46.428;6.256;2023-10-31T10:32:28;1.15;;;0.47;;
41333;SDS011;27078;46.428;6.256;2023-10-31T10:34:54;2.85;;;0.40;;
41333;SDS011;27078;46.428;6.256;2023-10-31T10:37:19;1.48;;;0.38;;
41333;SDS011;27078;46.428;6.256;2023-10-31T10:39:47;3.15;;;0.55;;
41333;SDS011;27078;46.428;6.256;2023-10-31T10:42:14;1.65;;;0.40;;
41333;SDS011;27078;46.428;6.256;2023-10-31T10:44:44;2.53;;;0.40;;
41333;SDS011;27078;46.428;6.256;2023-10-31T10:47:11;3.40;;;0.30;;
41333;SDS011;27078;46.428;6.256;2023-10-31T10:49:37;3.53;;;0.47;;
41333;SDS011;27078;46.428;6.256;2023-10-31T10:54:37;1.73;;;0.40;;
41333;SDS011;27078;46.428;6.256;2023-10-31T11:00:01;1.52;;;0.40;;
41333;SDS011;27078;46.428;6.256;2023-10-31T11:02:29;1.58;;;0.40;;
41333;SDS011;27078;46.428;6.256;2023-10-31T11:04:55;3.67;;;0.60;;
41333;SDS011;27078;46.428;6.256;2023-10-31T11:07:22;2.17;;;0.40;;
41333;SDS011;27078;46.428;6.256;2023-10-31T11:09:49;2.85;;;0.40;;
41333;SDS011;27078;46.428;6.256;2023-10-31T11:12:14;1.20;;;0.40;;
41333;SDS011;27078;46.428;6.256;2023-10-31T11:14:41;2.35;;;0.60;;
41333;SDS011;27078;46.428;6.256;2023-10-31T11:17:11;2.40;;;0.52;;
41333;SDS011;27078;46.428;6.256;2023-10-31T11:19:46;2.30;;;0.50;;
41333;SDS011;27078;46.428;6.256;2023-10-31T11:22:12;1.55;;;0.38;;
41333;SDS011;27078;46.428;6.256;2023-10-31T11:24:37;1.25;;;0.55;;
41333;SDS011;27078;46.428;6.256;2023-10-31T11:27:04;1.67;;;0.50;;
41333;SDS011;27078;46.428;6.256;2023-10-31T11:29:31;1.65;;;0.40;;
41333;SDS011;27078;46.428;6.256;2023-10-31T11:31:57;2.10;;;0.45;;
41333;SDS011;27078;46.428;6.256;2023-10-31T11:34:23;2.05;;;0.30;;
41333;SDS011;27078;46.428;6.256;2023-10-31T11:36:51;2.40;;;0.30;;
41333;SDS011;27078;46.428;6.256;2023-10-31T11:39:20;2.00;;;0.40;;
41333;SDS011;27078;46.428;6.256;2023-10-31T11:41:51;2.20;;;0.57;;
41333;SDS011;27078;46.428;6.256;2023-10-31T11:44:21;1.42;;;0.30;;
41333;SDS011;27078;46.428;6.256;2023-10-31T11:46:49;3.03;;;0.30;;
41333;SDS011;27078;46.428;6.256;2023-10-31T11:49:17;1.85;;;0.30;;
41333;SDS011;27078;46.428;6.256;2023-10-31T11:51:44;1.92;;;0.40;;
41333;SDS011;27078;46.428;6.256;2023-10-31T11:54:12;1.67;;;0.40;;
41333;SDS011;27078;46.428;6.256;2023-10-31T11:56:38;1.58;;;0.30;;
41333;SDS011;27078;46.428;6.256;2023-10-31T11:59:04;1.48;;;0.22;;
41333;SDS011;27078;46.428;6.256;2023-10-31T12:01:33;1.52;;;0.35;;
41333;SDS011;27078;46.428;6.256;2023-10-31T12:04:00;1.92;;;0.30;;
41333;SDS011;27078;46.428;6.256;2023-10-31T12:06:25;0.95;;;0.35;;
41333;SDS011;27078;46.428;6.256;2023-10-31T12:08:51;0.40;;;0.20;;
41333;SDS011;27078;46.428;6.256;2023-10-31T12:11:17;3.00;;;0.30;;
41333;SDS011;27078;46.428;6.256;2023-10-31T12:14:00;1.80;;;0.40;;
41333;SDS011;27078;46.428;6.256;2023-10-31T12:16:31;1.05;;;0.30;;
41333;SDS011;27078;46.428;6.256;2023-10-31T12:19:02;1.23;;;0.40;;
41333;SDS011;27078;46.428;6.256;2023-10-31T12:24:13;0.63;;;0.30;;
41333;SDS011;27078;46.428;6.256;2023-10-31T12:26:40;2.95;;;0.40;;
41333;SDS011;27078;46.428;6.256;2023-10-31T12:29:09;2.15;;;0.32;;
41333;SDS011;27078;46.428;6.256;2023-10-31T12:31:39;1.98;;;0.30;;
41333;SDS011;27078;46.428;6.256;2023-10-31T12:34:10;1.95;;;0.30;;
41333;SDS011;27078;46.428;6.256;2023-10-31T12:36:36;3.05;;;0.35;;
41333;SDS011;27078;46.428;6.256;2023-10-31T12:39:03;2.42;;;0.30;;
41333;SDS011;27078;46.428;6.256;2023-10-31T12:41:32;2.25;;;0.30;;
41333;SDS011;27078;46.428;6.256;2023-10-31T12:43:58;1.58;;;0.45;;
41333;SDS011;27078;46.428;6.256;2023-10-31T12:46:26;1.02;;;0.20;;
41333;SDS011;27078;46.428;6.256;2023-10-31T12:48:56;1.83;;;0.30;;
41333;SDS011;27078;46.428;6.256;2023-10-31T12:51:22;2.15;;;0.55;;
41333;SDS011;27078;46.428;6.256;2023-10-31T12:53:50;2.00;;;0.60;;
41333;SDS011;27078;46.428;6.256;2023-10-31T12:59:23;3.40;;;0.70;;
41333;SDS011;27078;46.428;6.256;2023-10-31T13:01:49;3.03;;;0.85;;
41333;SDS011;27078;46.428;6.256;2023-10-31T13:04:23;2.55;;;0.80;;
41333;SDS011;27078;46.428;6.256;2023-10-31T13:06:57;3.75;;;0.63;;
41333;SDS011;27078;46.428;6.256;2023-10-31T13:09:36;2.50;;;0.82;;
41333;SDS011;27078;46.428;6.256;2023-10-31T13:12:04;2.67;;;0.65;;
41333;SDS011;27078;46.428;6.256;2023-10-31T13:14:31;1.73;;;0.50;;
41333;SDS011;27078;46.428;6.256;2023-10-31T13:16:57;2.30;;;0.70;;
41333;SDS011;27078;46.428;6.256;2023-10-31T13:19:24;3.70;;;0.40;;
41333;SDS011;27078;46.428;6.256;2023-10-31T13:21:49;2.13;;;0.65;;
41333;SDS011;27078;46.428;6.256;2023-10-31T13:24:14;2.97;;;0.70;;
41333;SDS011;27078;46.428;6.256;2023-10-31T13:26:40;2.25;;;0.38;;
41333;SDS011;27078;46.428;6.256;2023-10-31T13:29:06;1.77;;;0.60;;
41333;SDS011;27078;46.428;6.256;2023-10-31T13:31:31;0.82;;;0.32;;
41333;SDS011;27078;46.428;6.256;2023-10-31T13:33:57;2.38;;;0.40;;
41333;SDS011;27078;46.428;6.256;2023-10-31T13:36:22;1.63;;;0.57;;
41333;SDS011;27078;46.428;6.256;2023-10-31T13:38:47;1.88;;;0.47;;
41333;SDS011;27078;46.428;6.256;2023-10-31T13:41:13;2.17;;;0.43;;
41333;SDS011;27078;46.428;6.256;2023-10-31T13:43:39;1.83;;;0.47;;
41333;SDS011;27078;46.428;6.256;2023-10-31T13:46:04;1.23;;;0.40;;
41333;SDS011;27078;46.428;6.256;2023-10-31T13:48:31;2.53;;;0.52;;
41333;SDS011;27078;46.428;6.256;2023-10-31T13:50:56;2.67;;;0.40;;
41333;SDS011;27078;46.428;6.256;2023-10-31T13:53:21;2.70;;;0.70;;
41333;SDS011;27078;46.428;6.256;2023-10-31T13:55:47;2.05;;;0.30;;
41333;SDS011;27078;46.428;6.256;2023-10-31T13:58:12;1.85;;;0.55;;
41333;SDS011;27078;46.428;6.256;2023-10-31T14:00:38;0.82;;;0.22;;
41333;SDS011;27078;46.428;6.256;2023-10-31T14:03:03;2.30;;;0.50;;
41333;SDS011;27078;46.428;6.256;2023-10-31T14:05:29;1.55;;;0.40;;
41333;SDS011;27078;46.428;6.256;2023-10-31T14:07:54;3.42;;;0.57;;
41333;SDS011;27078;46.428;6.256;2023-10-31T14:10:19;2.65;;;0.40;;
41333;SDS011;27078;46.428;6.256;2023-10-31T14:12:46;1.70;;;0.50;;
41333;SDS011;27078;46.428;6.256;2023-10-31T14:15:11;1.67;;;0.40;;
41333;SDS011;27078;46.428;6.256;2023-10-31T14:17:37;1.33;;;0.30;;
41333;SDS011;27078;46.428;6.256;2023-10-31T14:20:02;0.55;;;0.22;;
41333;SDS011;27078;46.428;6.256;2023-10-31T14:22:29;3.03;;;0.40;;
41333;SDS011;27078;46.428;6.256;2023-10-31T14:24:54;3.55;;;0.70;;
41333;SDS011;27078;46.428;6.256;2023-10-31T14:27:19;2.03;;;0.80;;
41333;SDS011;27078;46.428;6.256;2023-10-31T14:29:45;1.92;;;0.40;;
41333;SDS011;27078;46.428;6.256;2023-10-31T14:32:10;1.65;;;0.30;;
41333;SDS011;27078;46.428;6.256;2023-10-31T14:34:36;1.52;;;0.40;;
41333;SDS011;27078;46.428;6.256;2023-10-31T14:37:01;3.47;;;0.50;;
41333;SDS011;27078;46.428;6.256;2023-10-31T14:39:27;2.30;;;0.57;;
41333;SDS011;27078;46.428;6.256;2023-10-31T14:41:52;0.73;;;0.20;;
41333;SDS011;27078;46.428;6.256;2023-10-31T14:44:18;1.02;;;0.25;;
41333;SDS011;27078;46.428;6.256;2023-10-31T14:46:43;0.65;;;0.20;;
41333;SDS011;27078;46.428;6.256;2023-10-31T14:49:08;2.20;;;0.30;;
41333;SDS011;27078;46.428;6.256;2023-10-31T14:51:35;0.93;;;0.30;;